sensor_id;sensor_type;location;lat;lon;timestamp;temperature;humidity
67131;HTU21D;54051;53.464;49.532;2023-05-10T00:01:43;7.61;40.26
67131;HTU21D;54051;53.464;49.532;2023-05-10T00:04:09;7.60;40.23
67131;HTU21D;54051;53.464;49.532;2023-05-10T00:06:35;7.55;40.27
67131;HTU21D;54051;53.464;49.532;2023-05-10T00:09:01;7.54;40.13
67131;HTU21D;54051;53.464;49.532;2023-05-10T00:11:28;7.52;40.25
67131;HTU21D;54051;53.464;49.532;2023-05-10T00:13:54;7.55;39.92
67131;HTU21D;54051;53.464;49.532;2023-05-10T00:16:20;7.55;39.73
67131;HTU21D;54051;53.464;49.532;2023-05-10T00:18:46;7.57;39.64
67131;HTU21D;54051;53.464;49.532;2023-05-10T00:21:12;7.59;39.76
67131;HTU21D;54051;53.464;49.532;2023-05-10T00:23:41;7.59;39.73
67131;HTU21D;54051;53.464;49.532;2023-05-10T00:26:07;7.65;39.37
67131;HTU21D;54051;53.464;49.532;2023-05-10T00:28:33;7.65;39.52
67131;HTU21D;54051;53.464;49.532;2023-05-10T00:30:59;7.64;39.54
67131;HTU21D;54051;53.464;49.532;2023-05-10T00:33:30;7.59;39.59
67131;HTU21D;54051;53.464;49.532;2023-05-10T00:36:07;7.58;39.50
67131;HTU21D;54051;53.464;49.532;2023-05-10T00:38:33;7.56;39.70
67131;HTU21D;54051;53.464;49.532;2023-05-10T00:40:59;7.62;39.48
67131;HTU21D;54051;53.464;49.532;2023-05-10T00:43:25;7.64;39.02
67131;HTU21D;54051;53.464;49.532;2023-05-10T00:45:52;7.67;39.13
67131;HTU21D;54051;53.464;49.532;2023-05-10T00:48:18;7.61;39.28
67131;HTU21D;54051;53.464;49.532;2023-05-10T00:50:44;7.59;39.23
67131;HTU21D;54051;53.464;49.532;2023-05-10T00:53:10;7.59;39.38
67131;HTU21D;54051;53.464;49.532;2023-05-10T00:55:37;7.62;39.33
67131;HTU21D;54051;53.464;49.532;2023-05-10T00:58:04;7.60;39.43
67131;HTU21D;54051;53.464;49.532;2023-05-10T01:00:30;7.61;39.26
67131;HTU21D;54051;53.464;49.532;2023-05-10T01:02:56;7.57;39.56
67131;HTU21D;54051;53.464;49.532;2023-05-10T01:05:22;7.55;39.65
67131;HTU21D;54051;53.464;49.532;2023-05-10T01:07:48;7.54;39.31
67131;HTU21D;54051;53.464;49.532;2023-05-10T01:10:14;7.53;39.17
67131;HTU21D;54051;53.464;49.532;2023-05-10T01:12:40;7.53;39.39
67131;HTU21D;54051;53.464;49.532;2023-05-10T01:15:06;7.57;38.94
67131;HTU21D;54051;53.464;49.532;2023-05-10T01:17:34;7.56;39.00
67131;HTU21D;54051;53.464;49.532;2023-05-10T01:20:01;7.58;39.28
67131;HTU21D;54051;53.464;49.532;2023-05-10T01:40:39;7.83;38.46
67131;HTU21D;54051;53.464;49.532;2023-05-10T01:43:11;7.89;38.30
67131;HTU21D;54051;53.464;49.532;2023-05-10T01:45:46;7.88;38.73
67131;HTU21D;54051;53.464;49.532;2023-05-10T01:48:13;7.94;38.56
67131;HTU21D;54051;53.464;49.532;2023-05-10T01:50:41;7.96;38.39
67131;HTU21D;54051;53.464;49.532;2023-05-10T01:53:09;8.00;37.93
67131;HTU21D;54051;53.464;49.532;2023-05-10T01:55:43;8.08;37.64
67131;HTU21D;54051;53.464;49.532;2023-05-10T01:58:27;8.19;37.62
67131;HTU21D;54051;53.464;49.532;2023-05-10T02:00:53;8.32;36.96
67131;HTU21D;54051;53.464;49.532;2023-05-10T02:03:23;8.38;36.85
67131;HTU21D;54051;53.464;49.532;2023-05-10T02:05:49;8.41;36.65
67131;HTU21D;54051;53.464;49.532;2023-05-10T02:08:16;8.44;36.77
67131;HTU21D;54051;53.464;49.532;2023-05-10T02:10:55;8.46;36.44
67131;HTU21D;54051;53.464;49.532;2023-05-10T02:13:21;8.58;36.40
67131;HTU21D;54051;53.464;49.532;2023-05-10T02:15:48;8.64;36.40
67131;HTU21D;54051;53.464;49.532;2023-05-10T02:18:21;8.62;36.57
67131;HTU21D;54051;53.464;49.532;2023-05-10T02:20:51;8.51;36.51
67131;HTU21D;54051;53.464;49.532;2023-05-10T02:23:18;8.39;37.05
67131;HTU21D;54051;53.464;49.532;2023-05-10T02:25:45;8.45;36.59
67131;HTU21D;54051;53.464;49.532;2023-05-10T02:28:13;8.38;36.88
67131;HTU21D;54051;53.464;49.532;2023-05-10T02:30:40;8.46;37.05
67131;HTU21D;54051;53.464;49.532;2023-05-10T02:33:07;8.50;37.14
67131;HTU21D;54051;53.464;49.532;2023-05-10T02:35:34;8.62;37.26
67131;HTU21D;54051;53.464;49.532;2023-05-10T02:38:00;8.65;37.41
67131;HTU21D;54051;53.464;49.532;2023-05-10T02:43:18;8.86;36.83
67131;HTU21D;54051;53.464;49.532;2023-05-10T02:45:44;8.86;36.84
67131;HTU21D;54051;53.464;49.532;2023-05-10T02:48:12;8.96;36.82
67131;HTU21D;54051;53.464;49.532;2023-05-10T02:50:38;9.09;36.88
67131;HTU21D;54051;53.464;49.532;2023-05-10T02:53:11;9.02;36.92
67131;HTU21D;54051;53.464;49.532;2023-05-10T02:55:41;9.15;36.75
67131;HTU21D;54051;53.464;49.532;2023-05-10T02:58:10;9.29;36.50
67131;HTU21D;54051;53.464;49.532;2023-05-10T03:00:37;9.37;35.94
67131;HTU21D;54051;53.464;49.532;2023-05-10T03:03:03;9.49;36.86
67131;HTU21D;54051;53.464;49.532;2023-05-10T03:05:29;9.80;35.52
67131;HTU21D;54051;53.464;49.532;2023-05-10T03:07:56;9.74;35.85
67131;HTU21D;54051;53.464;49.532;2023-05-10T03:10:24;9.49;36.33
67131;HTU21D;54051;53.464;49.532;2023-05-10T03:15:42;9.86;35.98
67131;HTU21D;54051;53.464;49.532;2023-05-10T03:20:43;9.62;36.57
67131;HTU21D;54051;53.464;49.532;2023-05-10T03:25:39;10.07;35.77
67131;HTU21D;54051;53.464;49.532;2023-05-10T03:28:07;10.29;35.31
67131;HTU21D;54051;53.464;49.532;2023-05-10T03:30:33;10.53;34.63
67131;HTU21D;54051;53.464;49.532;2023-05-10T03:33:04;10.52;34.63
67131;HTU21D;54051;53.464;49.532;2023-05-10T03:35:30;10.48;34.68
67131;HTU21D;54051;53.464;49.532;2023-05-10T03:37:58;10.52;34.64
67131;HTU21D;54051;53.464;49.532;2023-05-10T03:40:25;10.80;34.15
67131;HTU21D;54051;53.464;49.532;2023-05-10T03:42:51;10.75;33.92
67131;HTU21D;54051;53.464;49.532;2023-05-10T03:45:17;10.74;34.14
67131;HTU21D;54051;53.464;49.532;2023-05-10T03:47:44;10.99;34.02
67131;HTU21D;54051;53.464;49.532;2023-05-10T03:50:10;11.05;33.87
67131;HTU21D;54051;53.464;49.532;2023-05-10T03:52:36;11.22;33.73
67131;HTU21D;54051;53.464;49.532;2023-05-10T03:55:05;11.43;33.00
67131;HTU21D;54051;53.464;49.532;2023-05-10T03:57:32;11.74;32.63
67131;HTU21D;54051;53.464;49.532;2023-05-10T03:59:58;12.00;32.22
67131;HTU21D;54051;53.464;49.532;2023-05-10T04:02:24;12.26;31.85
67131;HTU21D;54051;53.464;49.532;2023-05-10T04:04:51;12.37;31.53
67131;HTU21D;54051;53.464;49.532;2023-05-10T04:07:17;12.65;30.82
67131;HTU21D;54051;53.464;49.532;2023-05-10T04:09:43;12.86;31.09
67131;HTU21D;54051;53.464;49.532;2023-05-10T04:12:10;13.19;30.11
67131;HTU21D;54051;53.464;49.532;2023-05-10T04:14:36;13.51;29.82
67131;HTU21D;54051;53.464;49.532;2023-05-10T04:17:03;13.65;29.66
67131;HTU21D;54051;53.464;49.532;2023-05-10T04:19:33;13.34;29.32
67131;HTU21D;54051;53.464;49.532;2023-05-10T04:21:59;12.84;31.00
67131;HTU21D;54051;53.464;49.532;2023-05-10T04:24:26;12.95;30.80
67131;HTU21D;54051;53.464;49.532;2023-05-10T04:26:53;13.21;30.64
67131;HTU21D;54051;53.464;49.532;2023-05-10T04:29:20;13.46;30.00
67131;HTU21D;54051;53.464;49.532;2023-05-10T04:31:46;13.71;29.19
67131;HTU21D;54051;53.464;49.532;2023-05-10T04:34:12;13.88;29.10
67131;HTU21D;54051;53.464;49.532;2023-05-10T04:36:39;14.36;28.93
67131;HTU21D;54051;53.464;49.532;2023-05-10T04:39:05;14.47;30.10
67131;HTU21D;54051;53.464;49.532;2023-05-10T04:41:31;14.82;30.24
67131;HTU21D;54051;53.464;49.532;2023-05-10T04:43:57;15.18;28.78
67131;HTU21D;54051;53.464;49.532;2023-05-10T04:46:23;15.44;28.46
67131;HTU21D;54051;53.464;49.532;2023-05-10T04:48:50;15.85;27.39
67131;HTU21D;54051;53.464;49.532;2023-05-10T04:51:16;16.30;27.14
67131;HTU21D;54051;53.464;49.532;2023-05-10T04:53:42;16.52;26.67
67131;HTU21D;54051;53.464;49.532;2023-05-10T04:56:08;16.44;26.81
67131;HTU21D;54051;53.464;49.532;2023-05-10T04:58:35;16.43;27.88
67131;HTU21D;54051;53.464;49.532;2023-05-10T05:01:05;16.90;26.89
67131;HTU21D;54051;53.464;49.532;2023-05-10T05:03:32;17.13;25.39
67131;HTU21D;54051;53.464;49.532;2023-05-10T05:05:58;17.45;24.31
67131;HTU21D;54051;53.464;49.532;2023-05-10T05:08:24;18.20;23.04
67131;HTU21D;54051;53.464;49.532;2023-05-10T05:10:50;19.70;19.42
67131;HTU21D;54051;53.464;49.532;2023-05-10T05:13:17;20.40;18.30
67131;HTU21D;54051;53.464;49.532;2023-05-10T05:15:43;20.66;19.63
67131;HTU21D;54051;53.464;49.532;2023-05-10T05:18:09;20.72;17.45
67131;HTU21D;54051;53.464;49.532;2023-05-10T05:20:35;21.35;18.25
67131;HTU21D;54051;53.464;49.532;2023-05-10T05:23:01;22.60;15.32
67131;HTU21D;54051;53.464;49.532;2023-05-10T05:25:28;23.90;16.85
67131;HTU21D;54051;53.464;49.532;2023-05-10T05:27:54;24.38;13.80
67131;HTU21D;54051;53.464;49.532;2023-05-10T05:30:20;23.87;13.75
67131;HTU21D;54051;53.464;49.532;2023-05-10T05:32:46;24.44;12.70
67131;HTU21D;54051;53.464;49.532;2023-05-10T05:35:13;24.59;12.17
67131;HTU21D;54051;53.464;49.532;2023-05-10T05:37:39;25.08;12.43
67131;HTU21D;54051;53.464;49.532;2023-05-10T05:40:05;25.99;10.89
67131;HTU21D;54051;53.464;49.532;2023-05-10T05:42:31;25.87;10.24
67131;HTU21D;54051;53.464;49.532;2023-05-10T05:44:57;25.67;11.00
67131;HTU21D;54051;53.464;49.532;2023-05-10T05:47:23;26.24;10.49
67131;HTU21D;54051;53.464;49.532;2023-05-10T05:49:50;26.34;9.79
67131;HTU21D;54051;53.464;49.532;2023-05-10T05:52:16;24.02;11.85
67131;HTU21D;54051;53.464;49.532;2023-05-10T05:54:43;23.91;12.04
67131;HTU21D;54051;53.464;49.532;2023-05-10T05:57:09;25.47;10.44
67131;HTU21D;54051;53.464;49.532;2023-05-10T05:59:35;25.51;10.49
67131;HTU21D;54051;53.464;49.532;2023-05-10T06:02:02;25.58;11.23
67131;HTU21D;54051;53.464;49.532;2023-05-10T06:04:28;25.67;10.27
67131;HTU21D;54051;53.464;49.532;2023-05-10T06:06:54;26.33;9.79
67131;HTU21D;54051;53.464;49.532;2023-05-10T06:09:20;27.42;8.53
67131;HTU21D;54051;53.464;49.532;2023-05-10T06:11:46;27.31;8.62
67131;HTU21D;54051;53.464;49.532;2023-05-10T06:14:13;27.44;8.34
67131;HTU21D;54051;53.464;49.532;2023-05-10T06:16:39;28.56;7.76
67131;HTU21D;54051;53.464;49.532;2023-05-10T06:19:05;30.83;5.45
67131;HTU21D;54051;53.464;49.532;2023-05-10T06:21:31;31.70;5.32
67131;HTU21D;54051;53.464;49.532;2023-05-10T06:23:57;30.35;6.40
67131;HTU21D;54051;53.464;49.532;2023-05-10T06:26:23;27.81;7.69
67131;HTU21D;54051;53.464;49.532;2023-05-10T06:28:49;28.24;7.57
67131;HTU21D;54051;53.464;49.532;2023-05-10T06:31:15;29.95;6.08
67131;HTU21D;54051;53.464;49.532;2023-05-10T06:33:41;31.84;4.54
67131;HTU21D;54051;53.464;49.532;2023-05-10T06:36:07;30.67;5.15
67131;HTU21D;54051;53.464;49.532;2023-05-10T06:38:33;30.18;5.89
67131;HTU21D;54051;53.464;49.532;2023-05-10T06:40:59;31.16;5.06
67131;HTU21D;54051;53.464;49.532;2023-05-10T06:43:25;32.35;3.99
67131;HTU21D;54051;53.464;49.532;2023-05-10T06:45:51;32.66;3.77
67131;HTU21D;54051;53.464;49.532;2023-05-10T06:48:17;32.66;3.23
67131;HTU21D;54051;53.464;49.532;2023-05-10T06:50:43;31.71;4.73
67131;HTU21D;54051;53.464;49.532;2023-05-10T06:53:10;33.83;4.05
67131;HTU21D;54051;53.464;49.532;2023-05-10T06:55:37;35.63;1.88
67131;HTU21D;54051;53.464;49.532;2023-05-10T06:58:03;35.43;1.61
67131;HTU21D;54051;53.464;49.532;2023-05-10T07:00:29;31.72;4.65
67131;HTU21D;54051;53.464;49.532;2023-05-10T07:02:55;32.55;4.15
67131;HTU21D;54051;53.464;49.532;2023-05-10T07:05:21;32.52;3.99
67131;HTU21D;54051;53.464;49.532;2023-05-10T07:07:47;32.43;3.74
67131;HTU21D;54051;53.464;49.532;2023-05-10T07:10:13;32.77;3.36
67131;HTU21D;54051;53.464;49.532;2023-05-10T07:12:39;32.57;3.45
67131;HTU21D;54051;53.464;49.532;2023-05-10T07:15:05;31.52;4.20
67131;HTU21D;54051;53.464;49.532;2023-05-10T07:17:31;32.42;4.60
67131;HTU21D;54051;53.464;49.532;2023-05-10T07:19:59;32.48;3.96
67131;HTU21D;54051;53.464;49.532;2023-05-10T07:22:25;31.98;3.96
67131;HTU21D;54051;53.464;49.532;2023-05-10T07:24:51;29.72;5.66
67131;HTU21D;54051;53.464;49.532;2023-05-10T07:27:17;27.68;6.91
67131;HTU21D;54051;53.464;49.532;2023-05-10T07:29:43;28.06;6.86
67131;HTU21D;54051;53.464;49.532;2023-05-10T07:32:09;29.77;6.21
67131;HTU21D;54051;53.464;49.532;2023-05-10T07:34:35;29.92;5.54
67131;HTU21D;54051;53.464;49.532;2023-05-10T07:37:01;30.38;5.28
67131;HTU21D;54051;53.464;49.532;2023-05-10T07:39:27;28.99;6.40
67131;HTU21D;54051;53.464;49.532;2023-05-10T07:41:53;28.03;6.79
67131;HTU21D;54051;53.464;49.532;2023-05-10T07:44:19;28.27;7.22
67131;HTU21D;54051;53.464;49.532;2023-05-10T07:46:46;29.07;6.47
67131;HTU21D;54051;53.464;49.532;2023-05-10T07:49:12;28.84;6.83
67131;HTU21D;54051;53.464;49.532;2023-05-10T07:51:37;29.00;6.92
67131;HTU21D;54051;53.464;49.532;2023-05-10T07:54:03;30.34;5.54
67131;HTU21D;54051;53.464;49.532;2023-05-10T07:56:30;30.90;4.93
67131;HTU21D;54051;53.464;49.532;2023-05-10T07:58:57;30.87;5.47
67131;HTU21D;54051;53.464;49.532;2023-05-10T08:01:24;31.19;5.18
67131;HTU21D;54051;53.464;49.532;2023-05-10T08:03:50;31.45;5.08
67131;HTU21D;54051;53.464;49.532;2023-05-10T08:06:17;30.63;5.45
67131;HTU21D;54051;53.464;49.532;2023-05-10T08:08:43;28.92;7.37
67131;HTU21D;54051;53.464;49.532;2023-05-10T08:11:10;27.36;8.43
67131;HTU21D;54051;53.464;49.532;2023-05-10T08:13:36;25.73;9.56
67131;HTU21D;54051;53.464;49.532;2023-05-10T08:16:02;24.02;10.85
67131;HTU21D;54051;53.464;49.532;2023-05-10T08:18:28;23.46;12.40
67131;HTU21D;54051;53.464;49.532;2023-05-10T08:20:54;23.22;12.07
67131;HTU21D;54051;53.464;49.532;2023-05-10T08:23:20;23.20;12.01
67131;HTU21D;54051;53.464;49.532;2023-05-10T08:25:46;22.46;12.31
67131;HTU21D;54051;53.464;49.532;2023-05-10T08:28:12;21.60;14.44
67131;HTU21D;54051;53.464;49.532;2023-05-10T08:30:38;22.07;13.24
67131;HTU21D;54051;53.464;49.532;2023-05-10T08:33:04;21.66;13.96
67131;HTU21D;54051;53.464;49.532;2023-05-10T08:35:30;21.87;14.36
67131;HTU21D;54051;53.464;49.532;2023-05-10T08:37:56;22.10;14.32
67131;HTU21D;54051;53.464;49.532;2023-05-10T08:40:22;21.88;14.00
67131;HTU21D;54051;53.464;49.532;2023-05-10T08:42:51;21.35;14.23
67131;HTU21D;54051;53.464;49.532;2023-05-10T08:45:21;20.92;15.27
67131;HTU21D;54051;53.464;49.532;2023-05-10T08:47:48;20.93;14.73
67131;HTU21D;54051;53.464;49.532;2023-05-10T08:50:15;21.21;15.70
67131;HTU21D;54051;53.464;49.532;2023-05-10T08:52:41;21.79;15.04
67131;HTU21D;54051;53.464;49.532;2023-05-10T08:55:08;22.07;14.16
67131;HTU21D;54051;53.464;49.532;2023-05-10T08:57:35;21.74;13.97
67131;HTU21D;54051;53.464;49.532;2023-05-10T09:00:01;21.01;15.13
67131;HTU21D;54051;53.464;49.532;2023-05-10T09:02:28;20.72;15.98
67131;HTU21D;54051;53.464;49.532;2023-05-10T09:04:54;20.65;16.11
67131;HTU21D;54051;53.464;49.532;2023-05-10T09:07:20;20.44;15.99
67131;HTU21D;54051;53.464;49.532;2023-05-10T09:09:46;19.89;16.14
67131;HTU21D;54051;53.464;49.532;2023-05-10T09:12:13;19.69;16.59
67131;HTU21D;54051;53.464;49.532;2023-05-10T09:14:41;19.97;16.84
67131;HTU21D;54051;53.464;49.532;2023-05-10T09:17:07;19.83;16.40
67131;HTU21D;54051;53.464;49.532;2023-05-10T09:19:33;19.52;16.66
67131;HTU21D;54051;53.464;49.532;2023-05-10T09:21:59;19.71;17.61
67131;HTU21D;54051;53.464;49.532;2023-05-10T09:24:28;19.62;16.74
67131;HTU21D;54051;53.464;49.532;2023-05-10T09:26:54;19.16;17.42
67131;HTU21D;54051;53.464;49.532;2023-05-10T09:29:22;19.36;17.03
67131;HTU21D;54051;53.464;49.532;2023-05-10T09:31:49;19.51;16.39
67131;HTU21D;54051;53.464;49.532;2023-05-10T09:34:21;19.65;16.16
67131;HTU21D;54051;53.464;49.532;2023-05-10T09:36:50;19.87;16.25
67131;HTU21D;54051;53.464;49.532;2023-05-10T09:39:16;20.41;16.08
67131;HTU21D;54051;53.464;49.532;2023-05-10T09:41:43;20.79;15.63
67131;HTU21D;54051;53.464;49.532;2023-05-10T09:44:09;20.46;15.47
67131;HTU21D;54051;53.464;49.532;2023-05-10T09:46:35;20.24;16.03
67131;HTU21D;54051;53.464;49.532;2023-05-10T09:49:02;20.51;16.92
67131;HTU21D;54051;53.464;49.532;2023-05-10T09:51:28;21.02;15.77
67131;HTU21D;54051;53.464;49.532;2023-05-10T09:54:16;21.03;15.85
67131;HTU21D;54051;53.464;49.532;2023-05-10T09:56:41;20.68;14.90
67131;HTU21D;54051;53.464;49.532;2023-05-10T09:59:10;20.07;15.55
67131;HTU21D;54051;53.464;49.532;2023-05-10T10:01:36;20.37;15.51
67131;HTU21D;54051;53.464;49.532;2023-05-10T10:04:03;20.62;15.59
67131;HTU21D;54051;53.464;49.532;2023-05-10T10:06:35;20.51;16.20
67131;HTU21D;54051;53.464;49.532;2023-05-10T10:09:02;20.65;16.20
67131;HTU21D;54051;53.464;49.532;2023-05-10T10:11:28;21.10;15.16
67131;HTU21D;54051;53.464;49.532;2023-05-10T10:13:54;21.42;15.16
67131;HTU21D;54051;53.464;49.532;2023-05-10T10:16:20;21.42;14.16
67131;HTU21D;54051;53.464;49.532;2023-05-10T10:18:46;21.18;14.82
67131;HTU21D;54051;53.464;49.532;2023-05-10T10:21:16;20.34;15.50
67131;HTU21D;54051;53.464;49.532;2023-05-10T10:23:42;19.97;17.13
67131;HTU21D;54051;53.464;49.532;2023-05-10T10:26:09;20.27;15.68
67131;HTU21D;54051;53.464;49.532;2023-05-10T10:28:41;20.16;16.09
67131;HTU21D;54051;53.464;49.532;2023-05-10T10:31:30;20.15;15.34
67131;HTU21D;54051;53.464;49.532;2023-05-10T10:34:05;20.37;15.22
67131;HTU21D;54051;53.464;49.532;2023-05-10T10:36:33;20.85;14.87
67131;HTU21D;54051;53.464;49.532;2023-05-10T10:39:00;20.48;16.54
67131;HTU21D;54051;53.464;49.532;2023-05-10T10:41:27;20.44;16.06
67131;HTU21D;54051;53.464;49.532;2023-05-10T10:46:58;20.47;16.13
67131;HTU21D;54051;53.464;49.532;2023-05-10T10:49:23;20.66;16.17
67131;HTU21D;54051;53.464;49.532;2023-05-10T10:54:34;20.43;16.45
67131;HTU21D;54051;53.464;49.532;2023-05-10T10:57:12;20.20;15.87
67131;HTU21D;54051;53.464;49.532;2023-05-10T10:59:42;19.82;16.35
67131;HTU21D;54051;53.464;49.532;2023-05-10T11:04:55;20.06;16.05
67131;HTU21D;54051;53.464;49.532;2023-05-10T11:07:22;20.16;15.58
67131;HTU21D;54051;53.464;49.532;2023-05-10T11:09:48;20.05;15.55
67131;HTU21D;54051;53.464;49.532;2023-05-10T11:12:14;20.17;15.63
67131;HTU21D;54051;53.464;49.532;2023-05-10T11:14:40;20.06;15.68
67131;HTU21D;54051;53.464;49.532;2023-05-10T11:17:25;19.85;16.52
67131;HTU21D;54051;53.464;49.532;2023-05-10T11:20:10;19.83;16.08
67131;HTU21D;54051;53.464;49.532;2023-05-10T11:22:49;19.99;16.42
67131;HTU21D;54051;53.464;49.532;2023-05-10T11:25:17;20.26;15.93
67131;HTU21D;54051;53.464;49.532;2023-05-10T11:27:43;20.31;15.19
67131;HTU21D;54051;53.464;49.532;2023-05-10T11:30:10;20.00;15.81
67131;HTU21D;54051;53.464;49.532;2023-05-10T11:32:37;19.97;16.58
67131;HTU21D;54051;53.464;49.532;2023-05-10T11:35:10;20.16;15.89
67131;HTU21D;54051;53.464;49.532;2023-05-10T11:37:37;20.03;16.74
67131;HTU21D;54051;53.464;49.532;2023-05-10T11:40:07;20.17;16.05
67131;HTU21D;54051;53.464;49.532;2023-05-10T11:42:37;20.37;16.13
67131;HTU21D;54051;53.464;49.532;2023-05-10T11:45:04;20.48;15.42
67131;HTU21D;54051;53.464;49.532;2023-05-10T11:47:31;20.58;16.18
67131;HTU21D;54051;53.464;49.532;2023-05-10T11:49:57;20.24;15.64
67131;HTU21D;54051;53.464;49.532;2023-05-10T11:52:23;19.89;16.08
67131;HTU21D;54051;53.464;49.532;2023-05-10T11:54:53;19.99;15.89
67131;HTU21D;54051;53.464;49.532;2023-05-10T11:57:20;20.18;15.76
67131;HTU21D;54051;53.464;49.532;2023-05-10T11:59:53;20.21;16.21
67131;HTU21D;54051;53.464;49.532;2023-05-10T12:02:19;20.31;15.85
67131;HTU21D;54051;53.464;49.532;2023-05-10T12:04:45;20.39;15.74
67131;HTU21D;54051;53.464;49.532;2023-05-10T12:07:11;20.34;15.80
67131;HTU21D;54051;53.464;49.532;2023-05-10T12:10:11;20.36;16.01
67131;HTU21D;54051;53.464;49.532;2023-05-10T12:12:46;20.53;16.51
67131;HTU21D;54051;53.464;49.532;2023-05-10T12:15:19;20.76;15.55
67131;HTU21D;54051;53.464;49.532;2023-05-10T12:17:46;20.77;15.75
67131;HTU21D;54051;53.464;49.532;2023-05-10T12:20:22;20.92;15.99
67131;HTU21D;54051;53.464;49.532;2023-05-10T12:25:20;20.73;15.61
67131;HTU21D;54051;53.464;49.532;2023-05-10T12:30:18;20.70;15.63
67131;HTU21D;54051;53.464;49.532;2023-05-10T12:32:44;20.61;15.74
67131;HTU21D;54051;53.464;49.532;2023-05-10T12:35:10;20.71;16.20
67131;HTU21D;54051;53.464;49.532;2023-05-10T12:37:36;20.70;16.25
67131;HTU21D;54051;53.464;49.532;2023-05-10T12:40:07;20.49;15.35
67131;HTU21D;54051;53.464;49.532;2023-05-10T12:42:34;20.14;16.11
67131;HTU21D;54051;53.464;49.532;2023-05-10T12:45:01;20.26;16.03
67131;HTU21D;54051;53.464;49.532;2023-05-10T12:47:28;20.41;16.32
67131;HTU21D;54051;53.464;49.532;2023-05-10T12:49:54;20.56;16.19
67131;HTU21D;54051;53.464;49.532;2023-05-10T12:52:19;20.64;16.22
67131;HTU21D;54051;53.464;49.532;2023-05-10T12:54:46;20.51;15.93
67131;HTU21D;54051;53.464;49.532;2023-05-10T12:57:12;20.48;16.24
67131;HTU21D;54051;53.464;49.532;2023-05-10T12:59:38;20.31;16.54
67131;HTU21D;54051;53.464;49.532;2023-05-10T13:02:04;20.37;16.25
67131;HTU21D;54051;53.464;49.532;2023-05-10T13:04:32;20.31;16.39
67131;HTU21D;54051;53.464;49.532;2023-05-10T13:06:58;20.13;16.54
67131;HTU21D;54051;53.464;49.532;2023-05-10T13:09:24;20.04;16.02
67131;HTU21D;54051;53.464;49.532;2023-05-10T13:11:52;19.94;16.55
67131;HTU21D;54051;53.464;49.532;2023-05-10T13:14:19;19.92;16.25
67131;HTU21D;54051;53.464;49.532;2023-05-10T13:16:48;19.92;16.77
67131;HTU21D;54051;53.464;49.532;2023-05-10T13:19:19;19.96;16.46
67131;HTU21D;54051;53.464;49.532;2023-05-10T13:21:45;19.89;16.83
67131;HTU21D;54051;53.464;49.532;2023-05-10T13:24:11;19.86;16.92
67131;HTU21D;54051;53.464;49.532;2023-05-10T13:26:39;19.83;16.88
67131;HTU21D;54051;53.464;49.532;2023-05-10T13:29:06;19.80;16.87
67131;HTU21D;54051;53.464;49.532;2023-05-10T13:31:34;19.80;16.66
67131;HTU21D;54051;53.464;49.532;2023-05-10T13:34:01;19.61;17.03
67131;HTU21D;54051;53.464;49.532;2023-05-10T13:36:28;19.56;16.58
67131;HTU21D;54051;53.464;49.532;2023-05-10T13:38:53;19.44;16.94
67131;HTU21D;54051;53.464;49.532;2023-05-10T13:41:23;19.59;17.06
67131;HTU21D;54051;53.464;49.532;2023-05-10T13:43:48;19.80;16.84
67131;HTU21D;54051;53.464;49.532;2023-05-10T13:46:14;19.92;16.29
67131;HTU21D;54051;53.464;49.532;2023-05-10T13:48:40;20.00;16.29
67131;HTU21D;54051;53.464;49.532;2023-05-10T13:51:06;19.97;16.22
67131;HTU21D;54051;53.464;49.532;2023-05-10T13:53:32;19.80;16.46
67131;HTU21D;54051;53.464;49.532;2023-05-10T13:55:58;19.67;16.45
67131;HTU21D;54051;53.464;49.532;2023-05-10T13:58:24;19.52;16.96
67131;HTU21D;54051;53.464;49.532;2023-05-10T14:00:50;19.46;16.69
67131;HTU21D;54051;53.464;49.532;2023-05-10T14:03:16;19.41;16.45
67131;HTU21D;54051;53.464;49.532;2023-05-10T14:05:42;19.40;17.06
67131;HTU21D;54051;53.464;49.532;2023-05-10T14:08:11;19.44;16.83
67131;HTU21D;54051;53.464;49.532;2023-05-10T14:10:38;19.44;16.59
67131;HTU21D;54051;53.464;49.532;2023-05-10T14:13:11;19.36;16.74
67131;HTU21D;54051;53.464;49.532;2023-05-10T14:15:37;19.25;17.38
67131;HTU21D;54051;53.464;49.532;2023-05-10T14:18:06;19.25;17.06
67131;HTU21D;54051;53.464;49.532;2023-05-10T14:20:32;19.13;16.97
67131;HTU21D;54051;53.464;49.532;2023-05-10T14:22:59;18.96;16.69
67131;HTU21D;54051;53.464;49.532;2023-05-10T14:25:25;18.87;17.34
67131;HTU21D;54051;53.464;49.532;2023-05-10T14:27:51;18.74;17.38
67131;HTU21D;54051;53.464;49.532;2023-05-10T14:30:22;18.70;17.72
67131;HTU21D;54051;53.464;49.532;2023-05-10T14:32:48;18.71;17.17
67131;HTU21D;54051;53.464;49.532;2023-05-10T14:35:17;18.66;17.76
67131;HTU21D;54051;53.464;49.532;2023-05-10T14:37:46;18.64;17.64
67131;HTU21D;54051;53.464;49.532;2023-05-10T14:40:21;18.59;17.54
67131;HTU21D;54051;53.464;49.532;2023-05-10T14:42:47;18.53;17.54
67131;HTU21D;54051;53.464;49.532;2023-05-10T14:45:13;18.38;17.72
67131;HTU21D;54051;53.464;49.532;2023-05-10T14:47:41;18.36;18.38
67131;HTU21D;54051;53.464;49.532;2023-05-10T14:50:20;18.33;17.93
67131;HTU21D;54051;53.464;49.532;2023-05-10T14:52:49;18.21;17.91
67131;HTU21D;54051;53.464;49.532;2023-05-10T14:55:30;18.17;17.97
67131;HTU21D;54051;53.464;49.532;2023-05-10T14:57:56;18.04;17.92
67131;HTU21D;54051;53.464;49.532;2023-05-10T15:00:26;18.02;18.25
67131;HTU21D;54051;53.464;49.532;2023-05-10T15:02:53;18.02;18.40
67131;HTU21D;54051;53.464;49.532;2023-05-10T15:05:19;18.04;18.47
67131;HTU21D;54051;53.464;49.532;2023-05-10T15:07:45;18.03;18.28
67131;HTU21D;54051;53.464;49.532;2023-05-10T15:10:11;17.96;18.28
67131;HTU21D;54051;53.464;49.532;2023-05-10T15:12:39;17.92;18.83
67131;HTU21D;54051;53.464;49.532;2023-05-10T15:15:05;17.89;18.61
67131;HTU21D;54051;53.464;49.532;2023-05-10T15:17:32;17.84;18.76
67131;HTU21D;54051;53.464;49.532;2023-05-10T15:20:07;17.82;19.31
67131;HTU21D;54051;53.464;49.532;2023-05-10T15:22:34;17.75;19.25
67131;HTU21D;54051;53.464;49.532;2023-05-10T15:25:08;17.72;19.27
67131;HTU21D;54051;53.464;49.532;2023-05-10T15:27:35;17.68;19.53
67131;HTU21D;54051;53.464;49.532;2023-05-10T15:30:02;17.63;19.63
67131;HTU21D;54051;53.464;49.532;2023-05-10T15:32:28;17.60;19.03
67131;HTU21D;54051;53.464;49.532;2023-05-10T15:34:54;17.51;19.32
67131;HTU21D;54051;53.464;49.532;2023-05-10T15:37:23;17.47;19.43
67131;HTU21D;54051;53.464;49.532;2023-05-10T15:39:50;17.43;19.28
67131;HTU21D;54051;53.464;49.532;2023-05-10T15:42:16;17.35;19.30
67131;HTU21D;54051;53.464;49.532;2023-05-10T15:44:42;17.30;19.32
67131;HTU21D;54051;53.464;49.532;2023-05-10T15:47:10;17.20;19.23
67131;HTU21D;54051;53.464;49.532;2023-05-10T15:49:42;17.15;19.47
67131;HTU21D;54051;53.464;49.532;2023-05-10T15:52:16;17.06;19.43